sensor_id;sensor_type;location;lat;lon;timestamp;temperature;humidity
7934;DHT22;4012;48.896;9.192;2022-09-09T00:06:45;16.60;99.90
7934;DHT22;4012;48.896;9.192;2022-09-09T00:09:19;16.60;99.90
7934;DHT22;4012;48.896;9.192;2022-09-09T00:11:52;16.60;99.90
7934;DHT22;4012;48.896;9.192;2022-09-09T00:14:26;16.60;99.90
7934;DHT22;4012;48.896;9.192;2022-09-09T00:17:43;16.60;99.90
7934;DHT22;4012;48.896;9.192;2022-09-09T00:20:04;16.60;99.90
7934;DHT22;4012;48.896;9.192;2022-09-09T00:22:36;16.60;99.90
7934;DHT22;4012;48.896;9.192;2022-09-09T00:25:11;16.60;99.90
7934;DHT22;4012;48.896;9.192;2022-09-09T00:27:44;16.60;99.90
7934;DHT22;4012;48.896;9.192;2022-09-09T00:30:19;16.60;99.90
7934;DHT22;4012;48.896;9.192;2022-09-09T00:32:48;16.60;99.90
7934;DHT22;4012;48.896;9.192;2022-09-09T00:35:22;16.60;99.90
7934;DHT22;4012;48.896;9.192;2022-09-09T00:37:51;16.60;99.90
7934;DHT22;4012;48.896;9.192;2022-09-09T00:40:32;16.70;99.90
7934;DHT22;4012;48.896;9.192;2022-09-09T00:43:21;16.70;99.90
7934;DHT22;4012;48.896;9.192;2022-09-09T00:46:09;16.60;99.90
7934;DHT22;4012;48.896;9.192;2022-09-09T00:56:57;16.60;99.90
7934;DHT22;4012;48.896;9.192;2022-09-09T00:59:35;16.60;99.90
7934;DHT22;4012;48.896;9.192;2022-09-09T01:04:59;16.70;99.90
7934;DHT22;4012;48.896;9.192;2022-09-09T01:07:27;16.70;99.90
7934;DHT22;4012;48.896;9.192;2022-09-09T01:09:57;16.70;99.90
7934;DHT22;4012;48.896;9.192;2022-09-09T01:12:26;16.80;99.90
7934;DHT22;4012;48.896;9.192;2022-09-09T01:15:09;16.80;99.90
7934;DHT22;4012;48.896;9.192;2022-09-09T01:18:12;16.80;99.90
7934;DHT22;4012;48.896;9.192;2022-09-09T01:20:50;16.80;99.90
7934;DHT22;4012;48.896;9.192;2022-09-09T01:28:50;16.90;99.90
7934;DHT22;4012;48.896;9.192;2022-09-09T01:33:53;16.90;99.90
7934;DHT22;4012;48.896;9.192;2022-09-09T01:36:43;16.90;99.90
7934;DHT22;4012;48.896;9.192;2022-09-09T01:39:10;16.90;99.90
7934;DHT22;4012;48.896;9.192;2022-09-09T01:41:37;16.90;99.90
7934;DHT22;4012;48.896;9.192;2022-09-09T01:44:03;16.90;99.90
7934;DHT22;4012;48.896;9.192;2022-09-09T01:46:29;16.90;99.90
7934;DHT22;4012;48.896;9.192;2022-09-09T01:48:56;16.90;99.90
7934;DHT22;4012;48.896;9.192;2022-09-09T01:51:22;16.90;99.90
7934;DHT22;4012;48.896;9.192;2022-09-09T01:53:48;16.80;99.90
7934;DHT22;4012;48.896;9.192;2022-09-09T02:06:46;16.80;99.90
7934;DHT22;4012;48.896;9.192;2022-09-09T02:09:16;16.80;99.90
7934;DHT22;4012;48.896;9.192;2022-09-09T02:11:47;16.80;99.90
7934;DHT22;4012;48.896;9.192;2022-09-09T02:14:20;16.80;99.90
7934;DHT22;4012;48.896;9.192;2022-09-09T02:16:51;16.80;99.90
7934;DHT22;4012;48.896;9.192;2022-09-09T02:21:52;16.70;99.90
7934;DHT22;4012;48.896;9.192;2022-09-09T02:24:19;16.80;99.90
7934;DHT22;4012;48.896;9.192;2022-09-09T02:26:46;16.70;99.90
7934;DHT22;4012;48.896;9.192;2022-09-09T02:29:21;16.80;99.90
7934;DHT22;4012;48.896;9.192;2022-09-09T02:31:49;16.80;99.90
7934;DHT22;4012;48.896;9.192;2022-09-09T02:34:17;16.80;99.90
7934;DHT22;4012;48.896;9.192;2022-09-09T02:36:46;16.80;99.90
7934;DHT22;4012;48.896;9.192;2022-09-09T02:39:13;16.70;99.90
7934;DHT22;4012;48.896;9.192;2022-09-09T02:41:42;16.70;99.90
7934;DHT22;4012;48.896;9.192;2022-09-09T02:44:15;16.60;99.90
7934;DHT22;4012;48.896;9.192;2022-09-09T02:49:42;16.60;99.90
7934;DHT22;4012;48.896;9.192;2022-09-09T02:52:14;16.50;99.90
7934;DHT22;4012;48.896;9.192;2022-09-09T02:54:44;16.50;99.90
7934;DHT22;4012;48.896;9.192;2022-09-09T02:57:21;16.50;99.90
7934;DHT22;4012;48.896;9.192;2022-09-09T02:59:49;16.40;99.90
7934;DHT22;4012;48.896;9.192;2022-09-09T03:02:15;16.30;99.90
7934;DHT22;4012;48.896;9.192;2022-09-09T03:04:41;16.30;99.90
7934;DHT22;4012;48.896;9.192;2022-09-09T03:07:10;16.20;99.90
7934;DHT22;4012;48.896;9.192;2022-09-09T03:09:36;16.20;99.90
7934;DHT22;4012;48.896;9.192;2022-09-09T03:12:02;16.10;99.90
7934;DHT22;4012;48.896;9.192;2022-09-09T03:14:29;16.10;99.90
7934;DHT22;4012;48.896;9.192;2022-09-09T03:16:56;16.00;99.90
7934;DHT22;4012;48.896;9.192;2022-09-09T03:19:26;16.10;99.90
7934;DHT22;4012;48.896;9.192;2022-09-09T03:21:51;16.00;99.90
7934;DHT22;4012;48.896;9.192;2022-09-09T03:24:17;16.00;99.90
7934;DHT22;4012;48.896;9.192;2022-09-09T03:26:42;16.10;99.90
7934;DHT22;4012;48.896;9.192;2022-09-09T03:29:12;16.10;99.90
7934;DHT22;4012;48.896;9.192;2022-09-09T03:31:38;16.00;99.90
7934;DHT22;4012;48.896;9.192;2022-09-09T03:34:04;16.00;99.90
7934;DHT22;4012;48.896;9.192;2022-09-09T03:36:31;16.00;99.90
7934;DHT22;4012;48.896;9.192;2022-09-09T03:38:57;16.10;99.90
7934;DHT22;4012;48.896;9.192;2022-09-09T03:41:23;16.10;99.90
7934;DHT22;4012;48.896;9.192;2022-09-09T03:43:53;16.10;99.90
7934;DHT22;4012;48.896;9.192;2022-09-09T03:46:24;16.00;99.90
7934;DHT22;4012;48.896;9.192;2022-09-09T03:48:50;16.10;99.90
7934;DHT22;4012;48.896;9.192;2022-09-09T03:51:17;16.10;99.90
7934;DHT22;4012;48.896;9.192;2022-09-09T03:53:43;16.10;99.90
7934;DHT22;4012;48.896;9.192;2022-09-09T03:56:09;16.10;99.90
7934;DHT22;4012;48.896;9.192;2022-09-09T03:58:36;16.00;99.90
7934;DHT22;4012;48.896;9.192;2022-09-09T04:01:03;16.00;99.90
7934;DHT22;4012;48.896;9.192;2022-09-09T04:03:30;15.90;99.90
7934;DHT22;4012;48.896;9.192;2022-09-09T04:05:58;15.90;99.90
7934;DHT22;4012;48.896;9.192;2022-09-09T04:08:24;15.90;99.90
7934;DHT22;4012;48.896;9.192;2022-09-09T04:10:54;16.00;99.90
7934;DHT22;4012;48.896;9.192;2022-09-09T04:13:23;16.00;99.90
7934;DHT22;4012;48.896;9.192;2022-09-09T04:15:53;16.10;99.90
7934;DHT22;4012;48.896;9.192;2022-09-09T04:18:20;16.10;99.90
7934;DHT22;4012;48.896;9.192;2022-09-09T04:20:47;16.10;99.90
7934;DHT22;4012;48.896;9.192;2022-09-09T04:23:14;16.10;99.90
7934;DHT22;4012;48.896;9.192;2022-09-09T04:25:59;16.10;99.90
7934;DHT22;4012;48.896;9.192;2022-09-09T04:28:29;16.20;99.90
7934;DHT22;4012;48.896;9.192;2022-09-09T04:30:55;16.10;99.90
7934;DHT22;4012;48.896;9.192;2022-09-09T04:33:24;16.10;99.90
7934;DHT22;4012;48.896;9.192;2022-09-09T04:35:53;16.00;99.90
7934;DHT22;4012;48.896;9.192;2022-09-09T04:38:19;16.00;99.90
7934;DHT22;4012;48.896;9.192;2022-09-09T04:40:49;16.00;99.90
7934;DHT22;4012;48.896;9.192;2022-09-09T04:43:15;16.10;99.90
7934;DHT22;4012;48.896;9.192;2022-09-09T04:45:47;16.20;99.90
7934;DHT22;4012;48.896;9.192;2022-09-09T04:48:13;16.30;99.90
7934;DHT22;4012;48.896;9.192;2022-09-09T04:50:39;16.30;99.90
7934;DHT22;4012;48.896;9.192;2022-09-09T04:53:06;16.30;99.90
7934;DHT22;4012;48.896;9.192;2022-09-09T04:55:32;16.30;99.90
7934;DHT22;4012;48.896;9.192;2022-09-09T04:58:07;16.30;99.90
7934;DHT22;4012;48.896;9.192;2022-09-09T05:00:34;16.20;99.90
7934;DHT22;4012;48.896;9.192;2022-09-09T05:03:05;16.20;99.90
7934;DHT22;4012;48.896;9.192;2022-09-09T05:05:31;16.10;99.90
7934;DHT22;4012;48.896;9.192;2022-09-09T05:08:07;16.00;99.90
7934;DHT22;4012;48.896;9.192;2022-09-09T05:10:35;16.00;99.90
7934;DHT22;4012;48.896;9.192;2022-09-09T05:13:01;16.00;99.90
7934;DHT22;4012;48.896;9.192;2022-09-09T05:15:27;16.00;99.90
7934;DHT22;4012;48.896;9.192;2022-09-09T05:17:57;16.00;99.90
7934;DHT22;4012;48.896;9.192;2022-09-09T05:20:23;16.10;99.90
7934;DHT22;4012;48.896;9.192;2022-09-09T05:22:53;16.20;99.90
7934;DHT22;4012;48.896;9.192;2022-09-09T05:25:19;16.20;99.90
7934;DHT22;4012;48.896;9.192;2022-09-09T05:27:44;16.20;99.90
7934;DHT22;4012;48.896;9.192;2022-09-09T05:30:10;16.30;99.90
7934;DHT22;4012;48.896;9.192;2022-09-09T05:32:36;16.40;99.90
7934;DHT22;4012;48.896;9.192;2022-09-09T05:35:02;16.50;99.90
7934;DHT22;4012;48.896;9.192;2022-09-09T05:37:28;16.50;99.90
7934;DHT22;4012;48.896;9.192;2022-09-09T05:39:55;16.60;99.90
7934;DHT22;4012;48.896;9.192;2022-09-09T05:42:21;16.60;99.90
7934;DHT22;4012;48.896;9.192;2022-09-09T05:44:46;16.70;99.90
7934;DHT22;4012;48.896;9.192;2022-09-09T05:47:12;16.80;99.90
7934;DHT22;4012;48.896;9.192;2022-09-09T05:49:37;16.90;99.90
7934;DHT22;4012;48.896;9.192;2022-09-09T05:52:03;17.00;99.90
7934;DHT22;4012;48.896;9.192;2022-09-09T05:54:29;17.10;99.90
7934;DHT22;4012;48.896;9.192;2022-09-09T05:56:55;17.20;99.90
7934;DHT22;4012;48.896;9.192;2022-09-09T05:59:21;17.20;99.90
7934;DHT22;4012;48.896;9.192;2022-09-09T06:01:48;17.30;99.90
7934;DHT22;4012;48.896;9.192;2022-09-09T06:04:14;17.30;99.90
7934;DHT22;4012;48.896;9.192;2022-09-09T06:06:40;17.40;99.90
7934;DHT22;4012;48.896;9.192;2022-09-09T06:09:08;17.40;99.90
7934;DHT22;4012;48.896;9.192;2022-09-09T06:11:36;17.40;99.90
7934;DHT22;4012;48.896;9.192;2022-09-09T06:14:03;17.60;99.90
7934;DHT22;4012;48.896;9.192;2022-09-09T06:16:30;17.60;99.90
7934;DHT22;4012;48.896;9.192;2022-09-09T06:18:58;17.70;99.90
7934;DHT22;4012;48.896;9.192;2022-09-09T06:21:26;17.70;99.90
7934;DHT22;4012;48.896;9.192;2022-09-09T06:23:52;17.80;99.90
7934;DHT22;4012;48.896;9.192;2022-09-09T06:26:23;17.90;99.90
7934;DHT22;4012;48.896;9.192;2022-09-09T06:28:54;17.90;99.90
7934;DHT22;4012;48.896;9.192;2022-09-09T06:31:22;18.00;99.90
7934;DHT22;4012;48.896;9.192;2022-09-09T06:33:52;18.00;99.90
7934;DHT22;4012;48.896;9.192;2022-09-09T06:36:20;18.10;99.90
7934;DHT22;4012;48.896;9.192;2022-09-09T06:38:46;18.10;99.90
7934;DHT22;4012;48.896;9.192;2022-09-09T06:41:14;18.10;99.90
7934;DHT22;4012;48.896;9.192;2022-09-09T06:43:40;18.10;99.90
7934;DHT22;4012;48.896;9.192;2022-09-09T06:46:12;18.10;99.90
7934;DHT22;4012;48.896;9.192;2022-09-09T06:48:40;18.00;99.90
7934;DHT22;4012;48.896;9.192;2022-09-09T06:51:14;17.90;99.90
7934;DHT22;4012;48.896;9.192;2022-09-09T06:53:42;18.00;99.90
7934;DHT22;4012;48.896;9.192;2022-09-09T06:58:40;18.30;99.90
7934;DHT22;4012;48.896;9.192;2022-09-09T07:01:11;18.50;99.90
7934;DHT22;4012;48.896;9.192;2022-09-09T07:03:38;18.70;99.90
7934;DHT22;4012;48.896;9.192;2022-09-09T07:06:05;18.80;99.90
7934;DHT22;4012;48.896;9.192;2022-09-09T07:08:31;18.90;99.90
7934;DHT22;4012;48.896;9.192;2022-09-09T07:11:04;18.90;99.90
7934;DHT22;4012;48.896;9.192;2022-09-09T07:13:31;19.00;99.90
7934;DHT22;4012;48.896;9.192;2022-09-09T07:16:07;19.10;99.90
7934;DHT22;4012;48.896;9.192;2022-09-09T07:18:33;19.10;99.90
7934;DHT22;4012;48.896;9.192;2022-09-09T07:21:00;19.40;99.90
7934;DHT22;4012;48.896;9.192;2022-09-09T07:23:28;19.70;99.90
7934;DHT22;4012;48.896;9.192;2022-09-09T07:25:53;20.00;99.90
7934;DHT22;4012;48.896;9.192;2022-09-09T07:28:23;20.30;99.90
7934;DHT22;4012;48.896;9.192;2022-09-09T07:30:59;20.50;99.90
7934;DHT22;4012;48.896;9.192;2022-09-09T07:33:28;20.60;99.90
7934;DHT22;4012;48.896;9.192;2022-09-09T07:36:04;20.70;99.90
7934;DHT22;4012;48.896;9.192;2022-09-09T07:38:30;20.60;99.90
7934;DHT22;4012;48.896;9.192;2022-09-09T07:41:07;20.60;99.90
7934;DHT22;4012;48.896;9.192;2022-09-09T07:43:38;20.50;99.90
7934;DHT22;4012;48.896;9.192;2022-09-09T07:46:03;20.50;99.90
7934;DHT22;4012;48.896;9.192;2022-09-09T07:48:29;21.00;99.90
7934;DHT22;4012;48.896;9.192;2022-09-09T07:51:07;21.50;99.90
7934;DHT22;4012;48.896;9.192;2022-09-09T07:53:33;21.70;99.90
7934;DHT22;4012;48.896;9.192;2022-09-09T07:56:14;21.80;99.90
7934;DHT22;4012;48.896;9.192;2022-09-09T07:58:44;21.90;99.90
7934;DHT22;4012;48.896;9.192;2022-09-09T08:01:15;22.40;99.90
7934;DHT22;4012;48.896;9.192;2022-09-09T08:03:44;24.40;99.90
7934;DHT22;4012;48.896;9.192;2022-09-09T08:06:10;27.30;99.90
7934;DHT22;4012;48.896;9.192;2022-09-09T08:08:38;29.00;99.90
7934;DHT22;4012;48.896;9.192;2022-09-09T08:11:07;29.60;99.90
7934;DHT22;4012;48.896;9.192;2022-09-09T08:13:37;29.60;99.90
7934;DHT22;4012;48.896;9.192;2022-09-09T08:18:32;31.60;99.90
7934;DHT22;4012;48.896;9.192;2022-09-09T08:20:58;30.70;99.90
7934;DHT22;4012;48.896;9.192;2022-09-09T08:23:29;30.70;99.90
7934;DHT22;4012;48.896;9.192;2022-09-09T08:25:55;30.30;99.90
7934;DHT22;4012;48.896;9.192;2022-09-09T08:28:21;30.70;99.90
7934;DHT22;4012;48.896;9.192;2022-09-09T08:30:47;29.30;99.90
7934;DHT22;4012;48.896;9.192;2022-09-09T08:33:13;30.70;99.90
7934;DHT22;4012;48.896;9.192;2022-09-09T08:35:38;31.30;99.90
7934;DHT22;4012;48.896;9.192;2022-09-09T08:38:04;31.70;99.90
7934;DHT22;4012;48.896;9.192;2022-09-09T08:40:33;31.20;99.90
7934;DHT22;4012;48.896;9.192;2022-09-09T08:43:02;28.80;99.90
7934;DHT22;4012;48.896;9.192;2022-09-09T08:45:31;26.90;99.90
7934;DHT22;4012;48.896;9.192;2022-09-09T08:50:44;28.70;99.90
7934;DHT22;4012;48.896;9.192;2022-09-09T08:53:19;30.90;99.90
7934;DHT22;4012;48.896;9.192;2022-09-09T08:55:54;32.00;99.90
7934;DHT22;4012;48.896;9.192;2022-09-09T08:58:27;34.20;99.90
7934;DHT22;4012;48.896;9.192;2022-09-09T09:01:45;34.00;99.90
7934;DHT22;4012;48.896;9.192;2022-09-09T09:06:46;34.40;99.90
7934;DHT22;4012;48.896;9.192;2022-09-09T09:09:22;33.30;99.90
7934;DHT22;4012;48.896;9.192;2022-09-09T09:11:56;30.90;99.90
7934;DHT22;4012;48.896;9.192;2022-09-09T09:14:28;29.10;99.90
7934;DHT22;4012;48.896;9.192;2022-09-09T09:17:04;30.50;99.90
7934;DHT22;4012;48.896;9.192;2022-09-09T09:19:35;30.90;99.90
7934;DHT22;4012;48.896;9.192;2022-09-09T09:22:30;29.50;99.90
7934;DHT22;4012;48.896;9.192;2022-09-09T09:28:02;26.00;99.90
7934;DHT22;4012;48.896;9.192;2022-09-09T09:30:53;24.70;99.90
7934;DHT22;4012;48.896;9.192;2022-09-09T09:33:48;24.60;99.90
7934;DHT22;4012;48.896;9.192;2022-09-09T09:36:15;24.90;99.90
7934;DHT22;4012;48.896;9.192;2022-09-09T09:38:58;25.90;99.90
7934;DHT22;4012;48.896;9.192;2022-09-09T09:41:43;25.50;99.90
7934;DHT22;4012;48.896;9.192;2022-09-09T09:44:29;25.20;99.90
7934;DHT22;4012;48.896;9.192;2022-09-09T09:47:13;26.60;99.90
7934;DHT22;4012;48.896;9.192;2022-09-09T09:49:50;29.50;99.90
7934;DHT22;4012;48.896;9.192;2022-09-09T09:52:24;30.30;99.90
7934;DHT22;4012;48.896;9.192;2022-09-09T09:54:50;31.00;99.90
7934;DHT22;4012;48.896;9.192;2022-09-09T09:57:25;32.40;99.90
7934;DHT22;4012;48.896;9.192;2022-09-09T10:00:23;32.40;99.90
7934;DHT22;4012;48.896;9.192;2022-09-09T10:02:49;31.70;99.90
7934;DHT22;4012;48.896;9.192;2022-09-09T10:05:27;32.30;99.90
7934;DHT22;4012;48.896;9.192;2022-09-09T10:08:05;32.00;99.90
7934;DHT22;4012;48.896;9.192;2022-09-09T10:10:55;31.60;99.90
7934;DHT22;4012;48.896;9.192;2022-09-09T10:13:30;30.80;99.90
7934;DHT22;4012;48.896;9.192;2022-09-09T10:19:32;30.50;99.90
7934;DHT22;4012;48.896;9.192;2022-09-09T10:27:49;30.60;99.90
7934;DHT22;4012;48.896;9.192;2022-09-09T10:33:04;30.80;99.90
7934;DHT22;4012;48.896;9.192;2022-09-09T10:38:45;30.10;99.90
7934;DHT22;4012;48.896;9.192;2022-09-09T10:44:15;28.00;99.90
7934;DHT22;4012;48.896;9.192;2022-09-09T10:52:16;23.60;99.90
7934;DHT22;4012;48.896;9.192;2022-09-09T10:55:11;23.50;99.90
7934;DHT22;4012;48.896;9.192;2022-09-09T10:57:47;23.10;99.90
7934;DHT22;4012;48.896;9.192;2022-09-09T11:00:17;23.00;99.90
7934;DHT22;4012;48.896;9.192;2022-09-09T11:02:56;22.90;99.90
7934;DHT22;4012;48.896;9.192;2022-09-09T11:08:05;22.40;99.90
7934;DHT22;4012;48.896;9.192;2022-09-09T11:10:53;22.00;99.90
7934;DHT22;4012;48.896;9.192;2022-09-09T11:13:34;21.70;99.90
7934;DHT22;4012;48.896;9.192;2022-09-09T11:18:49;21.70;99.90
7934;DHT22;4012;48.896;9.192;2022-09-09T11:21:23;21.50;99.90
7934;DHT22;4012;48.896;9.192;2022-09-09T11:24:01;21.60;99.90
7934;DHT22;4012;48.896;9.192;2022-09-09T11:34:59;20.70;99.90
7934;DHT22;4012;48.896;9.192;2022-09-09T11:42:47;20.90;99.90
7934;DHT22;4012;48.896;9.192;2022-09-09T11:45:24;20.80;99.90
7934;DHT22;4012;48.896;9.192;2022-09-09T11:47:53;20.90;99.90
7934;DHT22;4012;48.896;9.192;2022-09-09T11:52:48;21.20;99.90
7934;DHT22;4012;48.896;9.192;2022-09-09T11:58:03;21.70;99.90
7934;DHT22;4012;48.896;9.192;2022-09-09T12:00:38;21.90;99.90
7934;DHT22;4012;48.896;9.192;2022-09-09T12:03:06;21.80;99.90
7934;DHT22;4012;48.896;9.192;2022-09-09T12:05:51;22.00;99.90
7934;DHT22;4012;48.896;9.192;2022-09-09T12:08:26;22.50;99.90
7934;DHT22;4012;48.896;9.192;2022-09-09T12:10:58;22.90;99.90
7934;DHT22;4012;48.896;9.192;2022-09-09T12:13:26;22.40;99.90
7934;DHT22;4012;48.896;9.192;2022-09-09T12:15:57;22.40;99.90
7934;DHT22;4012;48.896;9.192;2022-09-09T12:18:26;22.60;99.90
7934;DHT22;4012;48.896;9.192;2022-09-09T12:21:18;22.60;99.90
7934;DHT22;4012;48.896;9.192;2022-09-09T12:23:56;22.80;99.90
7934;DHT22;4012;48.896;9.192;2022-09-09T12:26:43;22.80;99.90
7934;DHT22;4012;48.896;9.192;2022-09-09T12:29:27;23.40;99.90
7934;DHT22;4012;48.896;9.192;2022-09-09T12:32:07;23.60;99.90
7934;DHT22;4012;48.896;9.192;2022-09-09T12:40:05;23.50;99.90
7934;DHT22;4012;48.896;9.192;2022-09-09T12:42:31;23.70;99.90
7934;DHT22;4012;48.896;9.192;2022-09-09T12:45:03;23.60;99.90
7934;DHT22;4012;48.896;9.192;2022-09-09T12:47:53;23.40;99.90
7934;DHT22;4012;48.896;9.192;2022-09-09T12:50:24;23.20;99.90
7934;DHT22;4012;48.896;9.192;2022-09-09T12:52:53;23.00;99.90
7934;DHT22;4012;48.896;9.192;2022-09-09T12:55:23;23.00;99.90
7934;DHT22;4012;48.896;9.192;2022-09-09T12:57:51;22.70;99.90
7934;DHT22;4012;48.896;9.192;2022-09-09T13:00:24;22.90;99.90
7934;DHT22;4012;48.896;9.192;2022-09-09T13:02:58;22.90;99.90
7934;DHT22;4012;48.896;9.192;2022-09-09T13:05:31;23.50;99.90
7934;DHT22;4012;48.896;9.192;2022-09-09T13:08:08;23.60;99.90
7934;DHT22;4012;48.896;9.192;2022-09-09T13:10:58;23.90;99.90
7934;DHT22;4012;48.896;9.192;2022-09-09T13:13:49;24.20;99.90
7934;DHT22;4012;48.896;9.192;2022-09-09T13:16:28;24.60;99.90
7934;DHT22;4012;48.896;9.192;2022-09-09T13:19:07;24.70;99.90
7934;DHT22;4012;48.896;9.192;2022-09-09T13:21:34;24.40;99.90
7934;DHT22;4012;48.896;9.192;2022-09-09T13:24:05;24.40;99.90
7934;DHT22;4012;48.896;9.192;2022-09-09T13:26:33;24.70;99.90
7934;DHT22;4012;48.896;9.192;2022-09-09T13:29:18;24.50;99.90
7934;DHT22;4012;48.896;9.192;2022-09-09T13:31:44;24.90;99.90
7934;DHT22;4012;48.896;9.192;2022-09-09T13:34:22;25.20;99.90
7934;DHT22;4012;48.896;9.192;2022-09-09T13:37:00;25.60;99.90
7934;DHT22;4012;48.896;9.192;2022-09-09T13:39:35;25.40;99.90
7934;DHT22;4012;48.896;9.192;2022-09-09T13:42:02;25.60;99.90
7934;DHT22;4012;48.896;9.192;2022-09-09T13:44:36;25.50;99.90
7934;DHT22;4012;48.896;9.192;2022-09-09T13:47:18;25.40;99.90
7934;DHT22;4012;48.896;9.192;2022-09-09T13:49:45;24.10;99.90
7934;DHT22;4012;48.896;9.192;2022-09-09T13:52:18;24.30;99.90
7934;DHT22;4012;48.896;9.192;2022-09-09T13:54:51;24.50;99.90
7934;DHT22;4012;48.896;9.192;2022-09-09T13:57:20;24.80;99.90
7934;DHT22;4012;48.896;9.192;2022-09-09T13:59:46;25.00;99.90
7934;DHT22;4012;48.896;9.192;2022-09-09T14:02:13;25.10;99.90
7934;DHT22;4012;48.896;9.192;2022-09-09T14:04:39;24.80;99.90
7934;DHT22;4012;48.896;9.192;2022-09-09T14:07:12;24.60;99.90
7934;DHT22;4012;48.896;9.192;2022-09-09T14:09:39;24.60;99.90
7934;DHT22;4012;48.896;9.192;2022-09-09T14:12:08;24.60;99.90
7934;DHT22;4012;48.896;9.192;2022-09-09T14:14:33;24.20;99.90
7934;DHT22;4012;48.896;9.192;2022-09-09T14:17:00;24.20;99.90
7934;DHT22;4012;48.896;9.192;2022-09-09T14:19:29;24.20;99.90
7934;DHT22;4012;48.896;9.192;2022-09-09T14:21:56;23.50;99.90
7934;DHT22;4012;48.896;9.192;2022-09-09T14:24:22;23.20;99.90
7934;DHT22;4012;48.896;9.192;2022-09-09T14:26:47;23.30;99.90
7934;DHT22;4012;48.896;9.192;2022-09-09T14:29:13;23.40;99.90
7934;DHT22;4012;48.896;9.192;2022-09-09T14:31:39;23.50;99.90
7934;DHT22;4012;48.896;9.192;2022-09-09T14:34:04;24.00;99.90
7934;DHT22;4012;48.896;9.192;2022-09-09T14:36:31;24.10;99.90
7934;DHT22;4012;48.896;9.192;2022-09-09T14:38:57;23.90;99.90
7934;DHT22;4012;48.896;9.192;2022-09-09T14:41:23;23.90;99.90
7934;DHT22;4012;48.896;9.192;2022-09-09T14:43:50;23.70;99.90
7934;DHT22;4012;48.896;9.192;2022-09-09T14:46:17;23.40;99.90
7934;DHT22;4012;48.896;9.192;2022-09-09T14:48:44;23.20;99.90
7934;DHT22;4012;48.896;9.192;2022-09-09T14:51:15;23.10;99.90
7934;DHT22;4012;48.896;9.192;2022-09-09T14:53:42;23.40;99.90
7934;DHT22;4012;48.896;9.192;2022-09-09T14:56:12;23.60;99.90
7934;DHT22;4012;48.896;9.192;2022-09-09T14:58:38;23.30;99.90
7934;DHT22;4012;48.896;9.192;2022-09-09T15:01:11;23.00;99.90
7934;DHT22;4012;48.896;9.192;2022-09-09T15:03:39;23.00;99.90
7934;DHT22;4012;48.896;9.192;2022-09-09T15:06:12;23.10;99.90
7934;DHT22;4012;48.896;9.192;2022-09-09T15:08:41;22.90;99.90
7934;DHT22;4012;48.896;9.192;2022-09-09T15:11:07;22.80;99.90
7934;DHT22;4012;48.896;9.192;2022-09-09T15:13:33;23.00;99.90
7934;DHT22;4012;48.896;9.192;2022-09-09T15:16:07;23.10;99.90
7934;DHT22;4012;48.896;9.192;2022-09-09T15:18:33;23.10;99.90
7934;DHT22;4012;48.896;9.192;2022-09-09T15:21:00;23.10;99.90
7934;DHT22;4012;48.896;9.192;2022-09-09T15:23:28;22.90;99.90
7934;DHT22;4012;48.896;9.192;2022-09-09T15:25:56;22.70;99.90
7934;DHT22;4012;48.896;9.192;2022-09-09T15:28:22;22.50;99.90
7934;DHT22;4012;48.896;9.192;2022-09-09T15:30:52;22.50;99.90
7934;DHT22;4012;48.896;9.192;2022-09-09T15:33:19;22.50;99.90
7934;DHT22;4012;48.896;9.192;2022-09-09T15:35:45;22.60;99.90
7934;DHT22;4012;48.896;9.192;2022-09-09T15:38:11;22.50;99.90
7934;DHT22;4012;48.896;9.192;2022-09-09T15:40:39;22.60;99.90
7934;DHT22;4012;48.896;9.192;2022-09-09T15:43:05;22.40;99.90
7934;DHT22;4012;48.896;9.192;2022-09-09T15:45:32;22.40;99.90
7934;DHT22;4012;48.896;9.192;2022-09-09T15:47:59;22.40;99.90
7934;DHT22;4012;48.896;9.192;2022-09-09T15:50:25;22.40;99.90
7934;DHT22;4012;48.896;9.192;2022-09-09T15:52:51;22.60;99.90
7934;DHT22;4012;48.896;9.192;2022-09-09T15:55:18;22.50;99.90
7934;DHT22;4012;48.896;9.192;2022-09-09T15:57:46;22.30;99.90
7934;DHT22;4012;48.896;9.192;2022-09-09T16:00:12;22.10;99.90
7934;DHT22;4012;48.896;9.192;2022-09-09T16:02:39;21.90;99.90
7934;DHT22;4012;48.896;9.192;2022-09-09T16:05:05;21.90;99.90
7934;DHT22;4012;48.896;9.192;2022-09-09T16:07:31;21.90;99.90
7934;DHT22;4012;48.896;9.192;2022-09-09T16:09:56;21.80;99.90
7934;DHT22;4012;48.896;9.192;2022-09-09T16:12:22;21.70;99.90
7934;DHT22;4012;48.896;9.192;2022-09-09T16:14:48;21.60;99.90
7934;DHT22;4012;48.896;9.192;2022-09-09T16:17:13;21.70;99.90
7934;DHT22;4012;48.896;9.192;2022-09-09T16:19:40;21.70;99.90
7934;DHT22;4012;48.896;9.192;2022-09-09T16:22:06;21.70;99.90
7934;DHT22;4012;48.896;9.192;2022-09-09T16:24:32;21.60;99.90
7934;DHT22;4012;48.896;9.192;2022-09-09T16:26:58;21.00;99.90
7934;DHT22;4012;48.896;9.192;2022-09-09T16:29:24;20.50;99.90
7934;DHT22;4012;48.896;9.192;2022-09-09T16:31:53;20.00;99.90
7934;DHT22;4012;48.896;9.192;2022-09-09T16:34:19;19.70;99.90
7934;DHT22;4012;48.896;9.192;2022-09-09T16:36:46;19.50;99.90
7934;DHT22;4012;48.896;9.192;2022-09-09T16:39:18;19.30;99.90
7934;DHT22;4012;48.896;9.192;2022-09-09T16:41:45;19.00;99.90
7934;DHT22;4012;48.896;9.192;2022-09-09T16:44:14;18.60;99.90
7934;DHT22;4012;48.896;9.192;2022-09-09T16:46:42;18.30;99.90
7934;DHT22;4012;48.896;9.192;2022-09-09T16:49:13;18.20;99.90
7934;DHT22;4012;48.896;9.192;2022-09-09T16:51:48;18.00;99.90
7934;DHT22;4012;48.896;9.192;2022-09-09T16:54:16;18.00;99.90
7934;DHT22;4012;48.896;9.192;2022-09-09T16:56:45;18.00;99.90
7934;DHT22;4012;48.896;9.192;2022-09-09T16:59:17;18.00;99.90
7934;DHT22;4012;48.896;9.192;2022-09-09T17:01:44;17.90;99.90
7934;DHT22;4012;48.896;9.192;2022-09-09T17:04:16;17.80;99.90
7934;DHT22;4012;48.896;9.192;2022-09-09T17:06:47;17.90;99.90
7934;DHT22;4012;48.896;9.192;2022-09-09T17:09:14;18.00;99.90
7934;DHT22;4012;48.896;9.192;2022-09-09T17:11:40;18.10;99.90
7934;DHT22;4012;48.896;9.192;2022-09-09T17:14:08;18.10;99.90
7934;DHT22;4012;48.896;9.192;2022-09-09T17:16:35;18.30;99.90
7934;DHT22;4012;48.896;9.192;2022-09-09T17:19:02;18.40;99.90
7934;DHT22;4012;48.896;9.192;2022-09-09T17:21:29;18.40;99.90
7934;DHT22;4012;48.896;9.192;2022-09-09T17:23:56;18.40;99.90
7934;DHT22;4012;48.896;9.192;2022-09-09T17:26:25;18.30;99.90
7934;DHT22;4012;48.896;9.192;2022-09-09T17:28:52;18.30;99.90
7934;DHT22;4012;48.896;9.192;2022-09-09T17:31:19;18.20;99.90
7934;DHT22;4012;48.896;9.192;2022-09-09T17:33:48;18.20;99.90
7934;DHT22;4012;48.896;9.192;2022-09-09T17:36:18;18.20;99.90
7934;DHT22;4012;48.896;9.192;2022-09-09T17:38:45;18.10;99.90
7934;DHT22;4012;48.896;9.192;2022-09-09T17:41:17;18.10;99.90
7934;DHT22;4012;48.896;9.192;2022-09-09T17:43:43;18.10;99.90
7934;DHT22;4012;48.896;9.192;2022-09-09T17:46:12;18.10;99.90
7934;DHT22;4012;48.896;9.192;2022-09-09T17:48:39;18.00;99.90
7934;DHT22;4012;48.896;9.192;2022-09-09T17:51:07;18.00;99.90
7934;DHT22;4012;48.896;9.192;2022-09-09T17:53:41;18.00;99.90
7934;DHT22;4012;48.896;9.192;2022-09-09T17:56:08;17.90;99.90
7934;DHT22;4012;48.896;9.192;2022-09-09T17:58:35;17.90;99.90
7934;DHT22;4012;48.896;9.192;2022-09-09T18:01:06;17.80;99.90
7934;DHT22;4012;48.896;9.192;2022-09-09T18:03:36;17.80;99.90
7934;DHT22;4012;48.896;9.192;2022-09-09T18:06:04;17.60;99.90
7934;DHT22;4012;48.896;9.192;2022-09-09T18:08:31;17.60;99.90
7934;DHT22;4012;48.896;9.192;2022-09-09T18:10:57;17.50;99.90